sensor_id;sensor_type;location;lat;lon;timestamp;temperature;humidity
45489;DHT22;31236;55.026;61.042;2023-05-31T00:00:27;18.10;82.40
45489;DHT22;31236;55.026;61.042;2023-05-31T00:02:57;18.00;83.30
45489;DHT22;31236;55.026;61.042;2023-05-31T00:05:27;17.90;83.40
45489;DHT22;31236;55.026;61.042;2023-05-31T00:07:57;17.90;83.90
45489;DHT22;31236;55.026;61.042;2023-05-31T00:10:27;17.90;84.30
45489;DHT22;31236;55.026;61.042;2023-05-31T00:12:57;17.90;84.50
45489;DHT22;31236;55.026;61.042;2023-05-31T00:15:27;17.90;84.30
45489;DHT22;31236;55.026;61.042;2023-05-31T00:17:57;17.80;83.90
45489;DHT22;31236;55.026;61.042;2023-05-31T00:20:28;17.80;84.00
45489;DHT22;31236;55.026;61.042;2023-05-31T00:22:58;17.80;84.50
45489;DHT22;31236;55.026;61.042;2023-05-31T00:25:28;17.70;85.00
45489;DHT22;31236;55.026;61.042;2023-05-31T00:27:58;17.70;85.00
45489;DHT22;31236;55.026;61.042;2023-05-31T00:30:28;17.70;84.90
45489;DHT22;31236;55.026;61.042;2023-05-31T00:32:58;17.70;85.20
45489;DHT22;31236;55.026;61.042;2023-05-31T00:35:28;17.70;85.30
45489;DHT22;31236;55.026;61.042;2023-05-31T00:38:00;17.70;85.20
45489;DHT22;31236;55.026;61.042;2023-05-31T00:40:30;17.70;85.90
45489;DHT22;31236;55.026;61.042;2023-05-31T00:43:00;17.70;86.00
45489;DHT22;31236;55.026;61.042;2023-05-31T00:45:33;17.80;86.30
45489;DHT22;31236;55.026;61.042;2023-05-31T00:48:03;17.80;86.30
45489;DHT22;31236;55.026;61.042;2023-05-31T00:50:33;17.90;86.60
45489;DHT22;31236;55.026;61.042;2023-05-31T00:53:04;17.90;86.80
45489;DHT22;31236;55.026;61.042;2023-05-31T00:55:36;18.00;86.60
45489;DHT22;31236;55.026;61.042;2023-05-31T00:58:07;18.10;86.70
45489;DHT22;31236;55.026;61.042;2023-05-31T01:00:38;18.20;87.10
45489;DHT22;31236;55.026;61.042;2023-05-31T01:03:08;18.30;87.50
45489;DHT22;31236;55.026;61.042;2023-05-31T01:05:40;18.40;87.50
45489;DHT22;31236;55.026;61.042;2023-05-31T01:08:11;18.40;87.60
45489;DHT22;31236;55.026;61.042;2023-05-31T01:10:42;18.40;87.00
45489;DHT22;31236;55.026;61.042;2023-05-31T01:19:52;18.60;87.60
45489;DHT22;31236;55.026;61.042;2023-05-31T01:25:35;18.80;86.70
45489;DHT22;31236;55.026;61.042;2023-05-31T01:28:35;18.80;86.60
45489;DHT22;31236;55.026;61.042;2023-05-31T01:30:36;18.80;86.50
45489;DHT22;31236;55.026;61.042;2023-05-31T01:33:26;18.90;86.90
45489;DHT22;31236;55.026;61.042;2023-05-31T01:35:57;19.00;86.90
45489;DHT22;31236;55.026;61.042;2023-05-31T01:38:27;19.10;87.00
45489;DHT22;31236;55.026;61.042;2023-05-31T01:40:58;19.20;86.90
45489;DHT22;31236;55.026;61.042;2023-05-31T01:43:29;19.20;87.60
45489;DHT22;31236;55.026;61.042;2023-05-31T01:45:59;19.30;87.40
45489;DHT22;31236;55.026;61.042;2023-05-31T01:48:30;19.40;86.50
45489;DHT22;31236;55.026;61.042;2023-05-31T01:51:01;19.40;84.70
45489;DHT22;31236;55.026;61.042;2023-05-31T01:53:32;19.40;83.50
45489;DHT22;31236;55.026;61.042;2023-05-31T01:56:02;19.40;83.70
45489;DHT22;31236;55.026;61.042;2023-05-31T01:58:36;19.50;83.00
45489;DHT22;31236;55.026;61.042;2023-05-31T02:01:09;19.50;81.60
45489;DHT22;31236;55.026;61.042;2023-05-31T02:03:40;19.60;81.00
45489;DHT22;31236;55.026;61.042;2023-05-31T02:06:10;19.60;80.50
45489;DHT22;31236;55.026;61.042;2023-05-31T02:08:40;19.60;80.20
45489;DHT22;31236;55.026;61.042;2023-05-31T02:11:10;19.70;80.10
45489;DHT22;31236;55.026;61.042;2023-05-31T02:13:41;19.70;80.40
45489;DHT22;31236;55.026;61.042;2023-05-31T02:16:10;19.80;80.40
45489;DHT22;31236;55.026;61.042;2023-05-31T02:18:40;19.80;79.40
45489;DHT22;31236;55.026;61.042;2023-05-31T02:21:12;19.90;79.40
45489;DHT22;31236;55.026;61.042;2023-05-31T02:23:42;20.00;79.40
45489;DHT22;31236;55.026;61.042;2023-05-31T02:26:13;20.00;78.70
45489;DHT22;31236;55.026;61.042;2023-05-31T02:28:43;20.10;78.50
45489;DHT22;31236;55.026;61.042;2023-05-31T02:31:13;20.10;79.00
45489;DHT22;31236;55.026;61.042;2023-05-31T02:33:43;20.20;79.80
45489;DHT22;31236;55.026;61.042;2023-05-31T02:36:14;20.30;80.10
45489;DHT22;31236;55.026;61.042;2023-05-31T02:38:44;20.30;79.30
45489;DHT22;31236;55.026;61.042;2023-05-31T02:41:15;20.40;79.30
45489;DHT22;31236;55.026;61.042;2023-05-31T02:43:45;20.50;79.30
45489;DHT22;31236;55.026;61.042;2023-05-31T02:46:15;20.60;79.90
45489;DHT22;31236;55.026;61.042;2023-05-31T02:48:45;20.60;78.90
45489;DHT22;31236;55.026;61.042;2023-05-31T02:51:15;20.70;78.10
45489;DHT22;31236;55.026;61.042;2023-05-31T02:53:45;20.80;77.60
45489;DHT22;31236;55.026;61.042;2023-05-31T02:56:15;20.80;78.20
45489;DHT22;31236;55.026;61.042;2023-05-31T02:58:47;20.90;77.30
45489;DHT22;31236;55.026;61.042;2023-05-31T03:01:17;21.00;77.40
45489;DHT22;31236;55.026;61.042;2023-05-31T03:03:48;21.10;78.60
45489;DHT22;31236;55.026;61.042;2023-05-31T03:06:18;21.20;77.80
45489;DHT22;31236;55.026;61.042;2023-05-31T03:08:48;21.20;77.60
45489;DHT22;31236;55.026;61.042;2023-05-31T03:11:18;21.30;77.00
45489;DHT22;31236;55.026;61.042;2023-05-31T03:13:49;21.40;77.20
45489;DHT22;31236;55.026;61.042;2023-05-31T03:16:19;21.50;77.50
45489;DHT22;31236;55.026;61.042;2023-05-31T03:18:50;21.60;78.40
45489;DHT22;31236;55.026;61.042;2023-05-31T03:21:20;21.70;77.60
45489;DHT22;31236;55.026;61.042;2023-05-31T03:23:50;21.80;78.20
45489;DHT22;31236;55.026;61.042;2023-05-31T03:26:21;21.90;76.80
45489;DHT22;31236;55.026;61.042;2023-05-31T03:28:51;22.00;76.90
45489;DHT22;31236;55.026;61.042;2023-05-31T03:31:21;22.10;76.30
45489;DHT22;31236;55.026;61.042;2023-05-31T03:33:51;22.20;76.80
45489;DHT22;31236;55.026;61.042;2023-05-31T03:36:21;22.30;76.10
45489;DHT22;31236;55.026;61.042;2023-05-31T03:38:52;22.50;75.20
45489;DHT22;31236;55.026;61.042;2023-05-31T03:41:22;22.60;73.90
45489;DHT22;31236;55.026;61.042;2023-05-31T03:43:53;22.70;74.60
45489;DHT22;31236;55.026;61.042;2023-05-31T03:46:23;22.90;73.50
45489;DHT22;31236;55.026;61.042;2023-05-31T03:48:55;23.00;73.40
45489;DHT22;31236;55.026;61.042;2023-05-31T03:51:25;23.00;72.10
45489;DHT22;31236;55.026;61.042;2023-05-31T03:53:56;23.20;69.50
45489;DHT22;31236;55.026;61.042;2023-05-31T03:56:26;23.20;70.80
45489;DHT22;31236;55.026;61.042;2023-05-31T03:58:56;23.40;69.40
45489;DHT22;31236;55.026;61.042;2023-05-31T04:01:28;23.50;68.90
45489;DHT22;31236;55.026;61.042;2023-05-31T04:03:59;23.50;68.80
45489;DHT22;31236;55.026;61.042;2023-05-31T04:06:30;23.70;67.50
45489;DHT22;31236;55.026;61.042;2023-05-31T04:09:00;23.80;65.90
45489;DHT22;31236;55.026;61.042;2023-05-31T04:11:31;23.90;65.00
45489;DHT22;31236;55.026;61.042;2023-05-31T04:14:01;24.00;67.00
45489;DHT22;31236;55.026;61.042;2023-05-31T04:16:31;24.30;66.00
45489;DHT22;31236;55.026;61.042;2023-05-31T04:19:02;24.40;64.60
45489;DHT22;31236;55.026;61.042;2023-05-31T04:21:32;24.40;61.90
45489;DHT22;31236;55.026;61.042;2023-05-31T04:24:03;24.50;62.20
45489;DHT22;31236;55.026;61.042;2023-05-31T04:26:33;24.50;61.80
45489;DHT22;31236;55.026;61.042;2023-05-31T04:29:04;24.60;60.60
45489;DHT22;31236;55.026;61.042;2023-05-31T04:31:36;24.80;59.60
45489;DHT22;31236;55.026;61.042;2023-05-31T04:34:06;24.90;60.20
45489;DHT22;31236;55.026;61.042;2023-05-31T04:36:37;25.10;59.20
45489;DHT22;31236;55.026;61.042;2023-05-31T04:39:07;25.20;57.40
45489;DHT22;31236;55.026;61.042;2023-05-31T04:41:39;25.40;57.50
45489;DHT22;31236;55.026;61.042;2023-05-31T04:44:09;25.50;56.40
45489;DHT22;31236;55.026;61.042;2023-05-31T04:46:39;25.60;55.60
45489;DHT22;31236;55.026;61.042;2023-05-31T04:49:10;25.60;53.70
45489;DHT22;31236;55.026;61.042;2023-05-31T04:51:40;25.60;53.60
45489;DHT22;31236;55.026;61.042;2023-05-31T04:54:10;25.60;53.90
45489;DHT22;31236;55.026;61.042;2023-05-31T04:56:43;25.80;53.60
45489;DHT22;31236;55.026;61.042;2023-05-31T04:59:13;25.90;53.10
45489;DHT22;31236;55.026;61.042;2023-05-31T05:01:44;26.10;53.70
45489;DHT22;31236;55.026;61.042;2023-05-31T05:04:15;26.20;52.90
45489;DHT22;31236;55.026;61.042;2023-05-31T05:06:45;26.30;51.60
45489;DHT22;31236;55.026;61.042;2023-05-31T05:09:15;26.40;53.10
45489;DHT22;31236;55.026;61.042;2023-05-31T05:11:45;26.50;53.30
45489;DHT22;31236;55.026;61.042;2023-05-31T05:14:15;26.60;52.30
45489;DHT22;31236;55.026;61.042;2023-05-31T05:16:45;26.70;51.90
45489;DHT22;31236;55.026;61.042;2023-05-31T05:19:15;26.70;53.20
45489;DHT22;31236;55.026;61.042;2023-05-31T05:21:47;26.80;52.10
45489;DHT22;31236;55.026;61.042;2023-05-31T05:24:17;26.90;52.70
45489;DHT22;31236;55.026;61.042;2023-05-31T05:26:48;26.90;52.20
45489;DHT22;31236;55.026;61.042;2023-05-31T05:29:18;27.00;52.80
45489;DHT22;31236;55.026;61.042;2023-05-31T05:31:49;27.00;50.90
45489;DHT22;31236;55.026;61.042;2023-05-31T05:34:19;27.10;50.60
45489;DHT22;31236;55.026;61.042;2023-05-31T05:36:51;27.20;50.60
45489;DHT22;31236;55.026;61.042;2023-05-31T05:39:22;27.40;50.70
45489;DHT22;31236;55.026;61.042;2023-05-31T05:41:52;27.50;52.30
45489;DHT22;31236;55.026;61.042;2023-05-31T05:44:22;27.70;49.00
45489;DHT22;31236;55.026;61.042;2023-05-31T05:46:52;27.90;48.50
45489;DHT22;31236;55.026;61.042;2023-05-31T05:49:25;27.90;45.70
45489;DHT22;31236;55.026;61.042;2023-05-31T05:51:55;28.00;44.40
45489;DHT22;31236;55.026;61.042;2023-05-31T05:54:25;28.10;45.70
45489;DHT22;31236;55.026;61.042;2023-05-31T05:56:56;28.20;46.40
45489;DHT22;31236;55.026;61.042;2023-05-31T05:59:26;28.20;45.30
45489;DHT22;31236;55.026;61.042;2023-05-31T06:01:57;28.30;45.50
45489;DHT22;31236;55.026;61.042;2023-05-31T06:04:27;28.30;44.90
45489;DHT22;31236;55.026;61.042;2023-05-31T11:17:57;31.30;31.70
45489;DHT22;31236;55.026;61.042;2023-05-31T11:20:28;31.70;34.30
45489;DHT22;31236;55.026;61.042;2023-05-31T11:26:27;31.70;33.90
45489;DHT22;31236;55.026;61.042;2023-05-31T11:35:03;31.80;34.10
45489;DHT22;31236;55.026;61.042;2023-05-31T11:37:35;31.80;33.30
45489;DHT22;31236;55.026;61.042;2023-05-31T11:40:07;31.80;33.40
45489;DHT22;31236;55.026;61.042;2023-05-31T11:42:40;31.90;33.60
45489;DHT22;31236;55.026;61.042;2023-05-31T11:45:30;32.00;32.00
45489;DHT22;31236;55.026;61.042;2023-05-31T11:50:58;32.50;32.20
45489;DHT22;31236;55.026;61.042;2023-05-31T11:53:28;32.60;31.20
45489;DHT22;31236;55.026;61.042;2023-05-31T11:56:00;32.50;31.00
45489;DHT22;31236;55.026;61.042;2023-05-31T11:58:34;32.20;30.10
45489;DHT22;31236;55.026;61.042;2023-05-31T12:01:06;32.00;29.60
45489;DHT22;31236;55.026;61.042;2023-05-31T12:03:39;31.80;30.30
45489;DHT22;31236;55.026;61.042;2023-05-31T12:06:11;31.60;31.00
45489;DHT22;31236;55.026;61.042;2023-05-31T12:08:42;31.50;30.70
45489;DHT22;31236;55.026;61.042;2023-05-31T12:11:15;31.40;31.90
45489;DHT22;31236;55.026;61.042;2023-05-31T12:13:53;31.60;30.80
45489;DHT22;31236;55.026;61.042;2023-05-31T12:16:25;31.60;32.50
45489;DHT22;31236;55.026;61.042;2023-05-31T12:18:58;31.60;32.40
45489;DHT22;31236;55.026;61.042;2023-05-31T12:21:32;31.50;32.00
45489;DHT22;31236;55.026;61.042;2023-05-31T12:24:38;31.50;32.00
45489;DHT22;31236;55.026;61.042;2023-05-31T12:29:13;31.80;32.70
45489;DHT22;31236;55.026;61.042;2023-05-31T12:31:44;31.80;31.60
45489;DHT22;31236;55.026;61.042;2023-05-31T12:37:09;31.80;31.00
45489;DHT22;31236;55.026;61.042;2023-05-31T12:39:42;31.80;31.70
45489;DHT22;31236;55.026;61.042;2023-05-31T12:42:15;31.80;31.10
45489;DHT22;31236;55.026;61.042;2023-05-31T12:44:47;31.80;32.10
45489;DHT22;31236;55.026;61.042;2023-05-31T12:47:19;31.70;31.90
45489;DHT22;31236;55.026;61.042;2023-05-31T12:50:26;31.60;31.10
45489;DHT22;31236;55.026;61.042;2023-05-31T12:52:26;31.50;31.20
45489;DHT22;31236;55.026;61.042;2023-05-31T12:55:00;31.40;31.40
45489;DHT22;31236;55.026;61.042;2023-05-31T12:57:32;31.40;31.10
45489;DHT22;31236;55.026;61.042;2023-05-31T13:00:04;31.40;31.30
45489;DHT22;31236;55.026;61.042;2023-05-31T13:02:39;31.30;30.80
45489;DHT22;31236;55.026;61.042;2023-05-31T13:05:11;31.30;31.10
45489;DHT22;31236;55.026;61.042;2023-05-31T13:07:44;31.20;31.50
45489;DHT22;31236;55.026;61.042;2023-05-31T13:10:20;31.20;30.90
45489;DHT22;31236;55.026;61.042;2023-05-31T13:12:54;31.20;31.70
45489;DHT22;31236;55.026;61.042;2023-05-31T13:15:26;31.20;33.00
45489;DHT22;31236;55.026;61.042;2023-05-31T13:17:56;31.20;34.50
45489;DHT22;31236;55.026;61.042;2023-05-31T13:20:26;31.20;33.20
45489;DHT22;31236;55.026;61.042;2023-05-31T13:23:01;31.10;31.90
45489;DHT22;31236;55.026;61.042;2023-05-31T13:25:32;31.10;31.80
45489;DHT22;31236;55.026;61.042;2023-05-31T13:28:06;31.00;32.60
45489;DHT22;31236;55.026;61.042;2023-05-31T13:30:38;31.00;33.70
45489;DHT22;31236;55.026;61.042;2023-05-31T13:33:11;30.90;32.80
45489;DHT22;31236;55.026;61.042;2023-05-31T13:35:45;30.90;33.20
45489;DHT22;31236;55.026;61.042;2023-05-31T13:38:18;30.90;34.00
45489;DHT22;31236;55.026;61.042;2023-05-31T13:40:51;30.80;33.10
45489;DHT22;31236;55.026;61.042;2023-05-31T13:43:24;30.80;33.00
45489;DHT22;31236;55.026;61.042;2023-05-31T13:46:29;30.80;32.20
45489;DHT22;31236;55.026;61.042;2023-05-31T13:48:33;30.70;33.30
45489;DHT22;31236;55.026;61.042;2023-05-31T13:51:06;30.70;34.20
45489;DHT22;31236;55.026;61.042;2023-05-31T13:53:39;30.70;34.30
45489;DHT22;31236;55.026;61.042;2023-05-31T13:56:10;30.50;33.20
45489;DHT22;31236;55.026;61.042;2023-05-31T13:58:40;30.50;33.80
45489;DHT22;31236;55.026;61.042;2023-05-31T14:01:11;30.40;34.00
45489;DHT22;31236;55.026;61.042;2023-05-31T14:03:41;30.40;32.40
45489;DHT22;31236;55.026;61.042;2023-05-31T14:06:11;30.40;32.60
45489;DHT22;31236;55.026;61.042;2023-05-31T14:08:43;30.30;32.50
45489;DHT22;31236;55.026;61.042;2023-05-31T14:11:15;30.20;32.80
45489;DHT22;31236;55.026;61.042;2023-05-31T14:13:49;30.10;32.20
45489;DHT22;31236;55.026;61.042;2023-05-31T14:16:23;30.10;33.10
45489;DHT22;31236;55.026;61.042;2023-05-31T14:18:55;30.10;32.40
45489;DHT22;31236;55.026;61.042;2023-05-31T14:21:25;30.10;32.40
45489;DHT22;31236;55.026;61.042;2023-05-31T14:23:58;30.10;32.20
45489;DHT22;31236;55.026;61.042;2023-05-31T14:26:30;30.10;32.90
45489;DHT22;31236;55.026;61.042;2023-05-31T14:29:04;30.00;32.90
45489;DHT22;31236;55.026;61.042;2023-05-31T14:31:38;30.00;33.20
45489;DHT22;31236;55.026;61.042;2023-05-31T14:34:10;30.00;32.30
45489;DHT22;31236;55.026;61.042;2023-05-31T14:36:42;30.00;33.60
45489;DHT22;31236;55.026;61.042;2023-05-31T14:39:47;29.90;32.90
45489;DHT22;31236;55.026;61.042;2023-05-31T14:41:51;29.90;33.50
45489;DHT22;31236;55.026;61.042;2023-05-31T14:44:21;29.80;32.80
45489;DHT22;31236;55.026;61.042;2023-05-31T14:46:55;29.80;32.80
45489;DHT22;31236;55.026;61.042;2023-05-31T14:49:26;29.70;33.20
45489;DHT22;31236;55.026;61.042;2023-05-31T14:51:59;29.70;32.30
45489;DHT22;31236;55.026;61.042;2023-05-31T14:54:33;29.70;33.60
45489;DHT22;31236;55.026;61.042;2023-05-31T14:57:08;29.60;32.30
45489;DHT22;31236;55.026;61.042;2023-05-31T14:59:42;29.50;33.40
45489;DHT22;31236;55.026;61.042;2023-05-31T15:02:15;29.40;33.10
45489;DHT22;31236;55.026;61.042;2023-05-31T15:04:47;29.50;33.50
45489;DHT22;31236;55.026;61.042;2023-05-31T15:07:21;29.40;33.50
45489;DHT22;31236;55.026;61.042;2023-05-31T15:09:55;29.30;33.40
45489;DHT22;31236;55.026;61.042;2023-05-31T15:12:29;29.30;33.40
45489;DHT22;31236;55.026;61.042;2023-05-31T15:15:04;29.20;33.10
45489;DHT22;31236;55.026;61.042;2023-05-31T15:17:38;29.10;33.50
45489;DHT22;31236;55.026;61.042;2023-05-31T15:20:12;29.00;33.60
45489;DHT22;31236;55.026;61.042;2023-05-31T15:22:46;28.90;33.50
45489;DHT22;31236;55.026;61.042;2023-05-31T15:25:20;28.90;33.70
45489;DHT22;31236;55.026;61.042;2023-05-31T15:27:54;28.90;34.10
45489;DHT22;31236;55.026;61.042;2023-05-31T15:30:28;28.90;34.60
45489;DHT22;31236;55.026;61.042;2023-05-31T15:33:02;28.80;34.30
45489;DHT22;31236;55.026;61.042;2023-05-31T15:38:09;28.60;35.10
45489;DHT22;31236;55.026;61.042;2023-05-31T15:40:41;28.60;34.90
45489;DHT22;31236;55.026;61.042;2023-05-31T15:43:13;28.50;34.40
45489;DHT22;31236;55.026;61.042;2023-05-31T15:45:47;28.50;33.80
45489;DHT22;31236;55.026;61.042;2023-05-31T15:48:21;28.50;33.80
45489;DHT22;31236;55.026;61.042;2023-05-31T15:50:53;28.50;34.30
45489;DHT22;31236;55.026;61.042;2023-05-31T15:53:27;28.40;33.80
45489;DHT22;31236;55.026;61.042;2023-05-31T15:55:59;28.40;33.20
45489;DHT22;31236;55.026;61.042;2023-05-31T15:58:31;28.40;33.80
45489;DHT22;31236;55.026;61.042;2023-05-31T16:01:05;28.40;33.30
45489;DHT22;31236;55.026;61.042;2023-05-31T16:03:39;28.30;34.00
45489;DHT22;31236;55.026;61.042;2023-05-31T16:06:11;28.30;34.00
45489;DHT22;31236;55.026;61.042;2023-05-31T16:08:45;28.20;33.90
45489;DHT22;31236;55.026;61.042;2023-05-31T16:11:20;28.10;33.10
45489;DHT22;31236;55.026;61.042;2023-05-31T16:13:54;28.00;33.70
45489;DHT22;31236;55.026;61.042;2023-05-31T16:16:28;28.00;33.70
45489;DHT22;31236;55.026;61.042;2023-05-31T16:19:02;27.90;34.10
45489;DHT22;31236;55.026;61.042;2023-05-31T16:21:35;27.90;34.20
45489;DHT22;31236;55.026;61.042;2023-05-31T16:24:08;27.80;34.40
45489;DHT22;31236;55.026;61.042;2023-05-31T16:26:41;27.70;34.20
45489;DHT22;31236;55.026;61.042;2023-05-31T16:29:15;27.60;34.60
45489;DHT22;31236;55.026;61.042;2023-05-31T16:31:47;27.60;34.20
45489;DHT22;31236;55.026;61.042;2023-05-31T16:34:19;27.50;33.70
45489;DHT22;31236;55.026;61.042;2023-05-31T16:36:51;27.50;34.50
45489;DHT22;31236;55.026;61.042;2023-05-31T16:39:22;27.50;34.70
45489;DHT22;31236;55.026;61.042;2023-05-31T16:41:54;27.40;34.80
45489;DHT22;31236;55.026;61.042;2023-05-31T16:44:26;27.40;34.70
45489;DHT22;31236;55.026;61.042;2023-05-31T16:47:00;27.40;34.70
45489;DHT22;31236;55.026;61.042;2023-05-31T16:49:32;27.40;34.40
45489;DHT22;31236;55.026;61.042;2023-05-31T16:52:04;27.40;34.90
45489;DHT22;31236;55.026;61.042;2023-05-31T16:54:37;27.40;34.70
45489;DHT22;31236;55.026;61.042;2023-05-31T16:57:09;27.30;34.90
45489;DHT22;31236;55.026;61.042;2023-05-31T16:59:43;27.30;35.10
45489;DHT22;31236;55.026;61.042;2023-05-31T17:02:16;27.30;35.40
45489;DHT22;31236;55.026;61.042;2023-05-31T17:04:50;27.30;35.10
45489;DHT22;31236;55.026;61.042;2023-05-31T17:07:24;27.30;35.20
45489;DHT22;31236;55.026;61.042;2023-05-31T17:09:58;27.30;35.20
45489;DHT22;31236;55.026;61.042;2023-05-31T17:12:29;27.20;35.30
45489;DHT22;31236;55.026;61.042;2023-05-31T17:14:58;27.20;35.20
45489;DHT22;31236;55.026;61.042;2023-05-31T17:17:30;27.20;35.90
45489;DHT22;31236;55.026;61.042;2023-05-31T17:20:05;27.10;34.70
45489;DHT22;31236;55.026;61.042;2023-05-31T17:22:38;27.10;34.80
45489;DHT22;31236;55.026;61.042;2023-05-31T17:25:09;27.20;35.20
45489;DHT22;31236;55.026;61.042;2023-05-31T17:27:42;27.10;35.10
45489;DHT22;31236;55.026;61.042;2023-05-31T17:30:15;27.10;35.00
45489;DHT22;31236;55.026;61.042;2023-05-31T17:32:49;27.10;35.00
45489;DHT22;31236;55.026;61.042;2023-05-31T17:35:20;27.10;35.50
45489;DHT22;31236;55.026;61.042;2023-05-31T17:37:50;27.00;35.30
45489;DHT22;31236;55.026;61.042;2023-05-31T17:40:24;27.00;35.10
45489;DHT22;31236;55.026;61.042;2023-05-31T17:42:58;27.00;35.10
45489;DHT22;31236;55.026;61.042;2023-05-31T17:45:28;27.00;35.40
45489;DHT22;31236;55.026;61.042;2023-05-31T17:48:01;27.00;35.40
45489;DHT22;31236;55.026;61.042;2023-05-31T17:50:33;27.00;35.50
45489;DHT22;31236;55.026;61.042;2023-05-31T17:53:04;27.00;35.80
45489;DHT22;31236;55.026;61.042;2023-05-31T17:55:36;27.00;35.70
45489;DHT22;31236;55.026;61.042;2023-05-31T17:58:07;27.00;36.00
45489;DHT22;31236;55.026;61.042;2023-05-31T18:00:38;26.90;35.90
45489;DHT22;31236;55.026;61.042;2023-05-31T18:03:10;26.90;36.10
45489;DHT22;31236;55.026;61.042;2023-05-31T18:05:41;26.90;36.10
45489;DHT22;31236;55.026;61.042;2023-05-31T18:08:12;26.90;36.40
45489;DHT22;31236;55.026;61.042;2023-05-31T18:10:44;26.90;36.30
45489;DHT22;31236;55.026;61.042;2023-05-31T18:13:16;26.80;36.10
45489;DHT22;31236;55.026;61.042;2023-05-31T18:15:47;26.80;36.20
45489;DHT22;31236;55.026;61.042;2023-05-31T18:18:17;26.80;36.20
45489;DHT22;31236;55.026;61.042;2023-05-31T18:20:50;26.80;36.00
45489;DHT22;31236;55.026;61.042;2023-05-31T18:23:22;26.80;36.30
45489;DHT22;31236;55.026;61.042;2023-05-31T18:25:54;26.80;36.10
45489;DHT22;31236;55.026;61.042;2023-05-31T18:28:27;26.80;36.70
45489;DHT22;31236;55.026;61.042;2023-05-31T18:30:59;26.80;36.50
45489;DHT22;31236;55.026;61.042;2023-05-31T18:33:31;26.80;36.80
45489;DHT22;31236;55.026;61.042;2023-05-31T18:36:04;26.70;36.70
45489;DHT22;31236;55.026;61.042;2023-05-31T18:38:57;26.80;36.60
45489;DHT22;31236;55.026;61.042;2023-05-31T18:41:31;26.70;36.40
45489;DHT22;31236;55.026;61.042;2023-05-31T18:44:02;26.80;37.00
45489;DHT22;31236;55.026;61.042;2023-05-31T18:46:34;26.80;36.60
45489;DHT22;31236;55.026;61.042;2023-05-31T18:49:06;26.70;37.60
45489;DHT22;31236;55.026;61.042;2023-05-31T18:51:39;26.70;37.20
45489;DHT22;31236;55.026;61.042;2023-05-31T18:54:13;26.70;37.10
45489;DHT22;31236;55.026;61.042;2023-05-31T18:56:45;26.60;37.40
45489;DHT22;31236;55.026;61.042;2023-05-31T18:59:19;26.60;37.50
45489;DHT22;31236;55.026;61.042;2023-05-31T19:01:51;26.60;37.80
45489;DHT22;31236;55.026;61.042;2023-05-31T19:04:23;26.60;38.20
45489;DHT22;31236;55.026;61.042;2023-05-31T19:06:55;26.50;38.00
45489;DHT22;31236;55.026;61.042;2023-05-31T19:09:29;26.40;38.20
45489;DHT22;31236;55.026;61.042;2023-05-31T19:12:01;26.40;37.80
45489;DHT22;31236;55.026;61.042;2023-05-31T19:14:33;26.40;37.70
45489;DHT22;31236;55.026;61.042;2023-05-31T19:17:06;26.40;38.30
45489;DHT22;31236;55.026;61.042;2023-05-31T19:19:40;26.30;38.60
45489;DHT22;31236;55.026;61.042;2023-05-31T19:22:12;26.30;38.20
45489;DHT22;31236;55.026;61.042;2023-05-31T19:24:46;26.30;38.10
45489;DHT22;31236;55.026;61.042;2023-05-31T19:27:20;26.30;39.60
45489;DHT22;31236;55.026;61.042;2023-05-31T19:29:51;26.30;38.80
45489;DHT22;31236;55.026;61.042;2023-05-31T19:32:22;26.20;38.60
45489;DHT22;31236;55.026;61.042;2023-05-31T19:34:52;26.20;39.00
45489;DHT22;31236;55.026;61.042;2023-05-31T19:37:23;26.10;39.10
45489;DHT22;31236;55.026;61.042;2023-05-31T19:39:55;26.00;39.20
45489;DHT22;31236;55.026;61.042;2023-05-31T19:42:28;26.00;38.90
45489;DHT22;31236;55.026;61.042;2023-05-31T19:45:02;25.90;38.80
45489;DHT22;31236;55.026;61.042;2023-05-31T19:47:35;25.90;38.70
45489;DHT22;31236;55.026;61.042;2023-05-31T19:50:06;25.90;38.90
45489;DHT22;31236;55.026;61.042;2023-05-31T19:52:38;25.80;38.20
45489;DHT22;31236;55.026;61.042;2023-05-31T19:55:29;25.80;38.30
45489;DHT22;31236;55.026;61.042;2023-05-31T19:58:00;25.80;37.90
45489;DHT22;31236;55.026;61.042;2023-05-31T20:00:30;25.80;37.70
45489;DHT22;31236;55.026;61.042;2023-05-31T20:03:00;25.80;38.30
45489;DHT22;31236;55.026;61.042;2023-05-31T20:05:32;25.80;37.00
45489;DHT22;31236;55.026;61.042;2023-05-31T20:08:03;25.90;37.10
45489;DHT22;31236;55.026;61.042;2023-05-31T20:10:34;25.90;37.00
45489;DHT22;31236;55.026;61.042;2023-05-31T20:13:04;25.90;36.80
45489;DHT22;31236;55.026;61.042;2023-05-31T20:15:36;26.00;35.60
45489;DHT22;31236;55.026;61.042;2023-05-31T20:18:10;26.20;35.70
45489;DHT22;31236;55.026;61.042;2023-05-31T20:20:40;26.30;35.50
45489;DHT22;31236;55.026;61.042;2023-05-31T20:23:12;26.40;35.00
45489;DHT22;31236;55.026;61.042;2023-05-31T20:25:42;26.50;35.00
45489;DHT22;31236;55.026;61.042;2023-05-31T20:28:13;26.50;35.60
45489;DHT22;31236;55.026;61.042;2023-05-31T20:30:43;26.50;35.40
45489;DHT22;31236;55.026;61.042;2023-05-31T20:33:14;26.50;35.40
45489;DHT22;31236;55.026;61.042;2023-05-31T20:35:44;26.50;35.40
45489;DHT22;31236;55.026;61.042;2023-05-31T20:38:15;26.50;35.50
45489;DHT22;31236;55.026;61.042;2023-05-31T20:40:45;26.50;35.10
45489;DHT22;31236;55.026;61.042;2023-05-31T20:43:16;26.60;35.10
45489;DHT22;31236;55.026;61.042;2023-05-31T20:45:45;26.60;34.70
45489;DHT22;31236;55.026;61.042;2023-05-31T20:48:16;26.70;34.50
45489;DHT22;31236;55.026;61.042;2023-05-31T20:50:46;26.70;34.60
45489;DHT22;31236;55.026;61.042;2023-05-31T20:53:16;26.70;35.10
45489;DHT22;31236;55.026;61.042;2023-05-31T20:55:46;26.70;34.50
45489;DHT22;31236;55.026;61.042;2023-05-31T20:58:16;26.80;34.30
45489;DHT22;31236;55.026;61.042;2023-05-31T21:00:50;26.80;33.90
45489;DHT22;31236;55.026;61.042;2023-05-31T21:03:21;26.90;34.40
45489;DHT22;31236;55.026;61.042;2023-05-31T21:05:51;26.90;34.70
45489;DHT22;31236;55.026;61.042;2023-05-31T21:08:21;26.90;34.00
45489;DHT22;31236;55.026;61.042;2023-05-31T21:10:52;26.90;34.00
45489;DHT22;31236;55.026;61.042;2023-05-31T21:13:24;26.90;34.50
45489;DHT22;31236;55.026;61.042;2023-05-31T21:15:56;26.90;34.60
45489;DHT22;31236;55.026;61.042;2023-05-31T21:18:26;26.90;35.10
45489;DHT22;31236;55.026;61.042;2023-05-31T21:20:56;26.80;36.00
45489;DHT22;31236;55.026;61.042;2023-05-31T21:23:27;26.60;36.20